Time;durP1;ratioP1;P1;durP2;ratioP2;P2;SDS_P1;SDS_P2;PMS_P1;PMS_P2;Temp;Humidity;BMP_temperature;BMP_pressure;BME280_temperature;BME280_humidity;BME280_pressure;Samples;Min_cycle;Max_cycle;Signal;HPM_P1;HPM_P2
2021/08/21 00:01:31;;;;;;;4.70;3.50;;;16.50;99.90;;;;;;5019576;28;20449;-73
2021/08/21 00:04:18;;;;;;;6.63;3.50;;;16.50;99.90;;;;;;5031386;28;20486;-73
2021/08/21 00:07:03;;;;;;;4.90;3.00;;;16.50;99.90;;;;;;5024869;28;20443;-73
2021/08/21 00:09:51;;;;;;;4.87;3.50;;;16.40;99.90;;;;;;5031174;28;20424;-73
2021/08/21 00:12:36;;;;;;;7.87;3.20;;;16.40;99.90;;;;;;5026703;28;20440;-73
2021/08/21 00:15:23;;;;;;;4.03;3.00;;;16.40;99.90;;;;;;5029223;28;20460;-73
2021/08/21 00:18:08;;;;;;;13.40;3.10;;;16.40;99.90;;;;;;5022625;28;20575;-73
2021/08/21 00:20:54;;;;;;;5.10;3.03;;;16.40;99.90;;;;;;5026066;28;20458;-73
2021/08/21 00:23:40;;;;;;;11.30;4.17;;;16.30;99.90;;;;;;5025532;28;20435;-73
2021/08/21 00:26:27;;;;;;;5.77;3.40;;;16.40;99.90;;;;;;5020639;28;20419;-73
2021/08/21 00:29:13;;;;;;;4.40;3.57;;;16.30;99.90;;;;;;5018575;28;20446;-73
2021/08/21 00:31:58;;;;;;;4.80;3.30;;;16.30;99.90;;;;;;5023296;28;20420;-73
2021/08/21 00:34:44;;;;;;;6.83;3.33;;;16.30;99.90;;;;;;5021602;28;20817;-73
2021/08/21 00:37:30;;;;;;;8.97;3.77;;;16.30;99.90;;;;;;5029119;28;20496;-73
2021/08/21 00:40:15;;;;;;;6.13;3.50;;;16.40;99.90;;;;;;5029708;28;20591;-73
2021/08/21 00:43:02;;;;;;;5.53;3.40;;;16.20;99.90;;;;;;5022421;28;20460;-73
2021/08/21 00:45:48;;;;;;;5.38;3.20;;;16.20;99.90;;;;;;5018370;28;20593;-73
2021/08/21 00:48:34;;;;;;;9.40;3.47;;;16.10;99.90;;;;;;5028150;28;20206;-73
2021/08/21 00:51:19;;;;;;;5.40;3.00;;;16.20;99.90;;;;;;5027680;28;20559;-73
2021/08/21 00:54:05;;;;;;;8.40;3.50;;;16.20;99.90;;;;;;5026029;28;20793;-73
2021/08/21 00:56:53;;;;;;;6.37;3.40;;;16.30;99.90;;;;;;5033524;28;20920;-73
2021/08/21 00:59:42;;;;;;;3.93;3.03;;;16.20;99.90;;;;;;5034171;28;20969;-73
2021/08/21 01:02:29;;;;;;;5.00;3.40;;;16.10;99.90;;;;;;5022012;28;20492;-73
2021/08/21 01:05:16;;;;;;;3.63;2.73;;;16.10;99.90;;;;;;5027123;28;20499;-73
2021/08/21 01:08:01;;;;;;;5.20;3.40;;;16.00;99.90;;;;;;5027152;28;20415;-73
2021/08/21 01:10:49;;;;;;;4.87;3.80;;;16.00;99.90;;;;;;5032937;28;20526;-73
2021/08/21 01:13:34;;;;;;;4.30;3.30;;;16.00;99.90;;;;;;5034493;28;20439;-73
2021/08/21 01:16:23;;;;;;;4.90;3.40;;;16.00;99.90;;;;;;5032564;28;20472;-73
2021/08/21 01:19:09;;;;;;;10.23;4.00;;;15.90;99.90;;;;;;5015156;28;20448;-73
2021/08/21 01:21:54;;;;;;;3.43;2.80;;;15.80;99.90;;;;;;5025012;28;20829;-73
2021/08/21 01:24:41;;;;;;;5.80;3.50;;;15.80;99.90;;;;;;5025070;28;20527;-73
2021/08/21 01:27:31;;;;;;;7.23;3.43;;;15.90;99.90;;;;;;5029154;28;20460;-73
2021/08/21 01:30:16;;;;;;;3.97;3.37;;;16.00;99.90;;;;;;5021741;28;20858;-73
2021/08/21 01:33:02;;;;;;;4.57;3.20;;;15.90;99.90;;;;;;5019754;28;20443;-73
2021/08/21 01:35:52;;;;;;;9.83;3.43;;;15.90;99.90;;;;;;5030272;28;20555;-73
2021/08/21 01:38:53;;;;;;;7.07;3.80;;;15.80;99.90;;;;;;5032108;28;20454;-73
2021/08/21 01:41:40;;;;;;;4.43;3.50;;;15.70;99.90;;;;;;5036377;28;20799;-73
2021/08/21 01:44:27;;;;;;;19.20;3.70;;;15.60;99.90;;;;;;5032985;28;20543;-73
2021/08/21 01:47:13;;;;;;;6.77;3.83;;;15.70;99.90;;;;;;5032737;28;20463;-73
2021/08/21 01:50:02;;;;;;;6.20;3.80;;;15.70;99.90;;;;;;5033881;28;20391;-73
2021/08/21 01:52:49;;;;;;;5.53;3.43;;;15.80;99.90;;;;;;5032091;28;20430;-73
2021/08/21 01:55:35;;;;;;;6.97;2.83;;;15.80;99.90;;;;;;5030520;28;20557;-73
2021/08/21 01:58:21;;;;;;;8.43;3.00;;;15.80;99.90;;;;;;5044632;22;20472;-73
2021/08/21 02:01:07;;;;;;;6.30;3.25;;;15.70;99.90;;;;;;5044551;28;20415;-73
2021/08/21 02:03:53;;;;;;;4.37;3.47;;;15.60;99.90;;;;;;5043041;28;20209;-73
2021/08/21 02:06:39;;;;;;;6.77;3.73;;;15.60;99.90;;;;;;5053042;28;20417;-73
2021/08/21 02:09:26;;;;;;;5.67;3.53;;;15.70;99.90;;;;;;5026609;28;20496;-73
2021/08/21 02:12:15;;;;;;;6.00;3.20;;;15.70;99.90;;;;;;5029904;28;20416;-73
2021/08/21 02:15:01;;;;;;;4.23;3.30;;;15.60;99.90;;;;;;5025498;28;20425;-73
2021/08/21 02:17:48;;;;;;;5.87;3.50;;;15.60;99.90;;;;;;5030045;28;20476;-73
2021/08/21 02:20:34;;;;;;;8.83;3.70;;;15.60;99.90;;;;;;5029183;28;21008;-73
2021/08/21 02:23:20;;;;;;;10.17;4.00;;;15.60;99.90;;;;;;5026392;28;20504;-73
2021/08/21 02:26:06;;;;;;;6.10;3.57;;;15.60;99.90;;;;;;5025822;28;20425;-73
2021/08/21 02:28:52;;;;;;;3.97;3.10;;;15.60;99.90;;;;;;5031941;28;20447;-73
2021/08/21 02:31:38;;;;;;;10.50;4.10;;;15.60;99.90;;;;;;5023808;28;20447;-73
2021/08/21 02:34:25;;;;;;;4.33;2.93;;;15.50;99.90;;;;;;5024596;28;20425;-73
2021/08/21 02:37:13;;;;;;;6.20;3.30;;;15.40;99.90;;;;;;5022012;28;20480;-73
2021/08/21 02:39:59;;;;;;;5.95;3.60;;;15.40;99.90;;;;;;5018924;28;20501;-73
2021/08/21 02:42:45;;;;;;;4.90;3.35;;;15.40;99.90;;;;;;5028240;28;20768;-73
2021/08/21 02:45:30;;;;;;;7.50;3.47;;;15.40;99.90;;;;;;5023553;28;20211;-73
2021/08/21 02:48:16;;;;;;;5.47;3.40;;;15.30;99.90;;;;;;5021197;28;20469;-73
2021/08/21 02:51:04;;;;;;;6.47;3.87;;;15.20;99.90;;;;;;5032818;28;20617;-73
2021/08/21 02:53:49;;;;;;;5.07;3.20;;;15.20;99.90;;;;;;5021261;28;20468;-73
2021/08/21 02:56:34;;;;;;;4.30;3.30;;;15.20;99.90;;;;;;5031662;28;20479;-73
2021/08/21 02:59:20;;;;;;;6.87;3.67;;;15.30;99.90;;;;;;5019800;28;20953;-73
2021/08/21 03:02:07;;;;;;;4.27;3.47;;;15.40;99.90;;;;;;5022025;28;20469;-73
2021/08/21 03:04:52;;;;;;;5.37;3.80;;;15.40;99.90;;;;;;5032103;28;20806;-73
2021/08/21 03:07:40;;;;;;;6.13;3.70;;;15.30;99.90;;;;;;5024063;28;20464;-73
2021/08/21 03:10:25;;;;;;;7.30;3.23;;;15.40;99.90;;;;;;5031049;28;20465;-73
2021/08/21 03:13:11;;;;;;;4.70;3.53;;;15.30;99.90;;;;;;5026069;28;20420;-73
2021/08/21 03:15:57;;;;;;;6.13;3.63;;;15.40;99.90;;;;;;5017081;28;20907;-73
2021/08/21 03:18:43;;;;;;;5.60;3.10;;;15.30;99.90;;;;;;5021290;28;20814;-73
2021/08/21 03:21:28;;;;;;;4.10;3.50;;;15.30;99.90;;;;;;5026216;28;20453;-73
2021/08/21 03:24:15;;;;;;;5.32;3.50;;;15.30;99.90;;;;;;5022295;28;20510;-73
2021/08/21 03:27:01;;;;;;;4.63;3.30;;;15.30;99.90;;;;;;5021477;28;20752;-73
2021/08/21 03:29:47;;;;;;;6.17;3.90;;;15.30;99.90;;;;;;5031120;28;20466;-74
2021/08/21 03:32:32;;;;;;;7.33;4.00;;;15.30;99.90;;;;;;5027301;28;20419;-74
2021/08/21 03:35:18;;;;;;;5.87;3.30;;;15.30;99.90;;;;;;5030524;28;20446;-74
2021/08/21 03:38:04;;;;;;;5.90;3.27;;;15.30;99.90;;;;;;5028688;28;20826;-74
2021/08/21 03:40:51;;;;;;;3.77;3.13;;;15.30;99.90;;;;;;5033469;28;20441;-74
2021/08/21 03:43:36;;;;;;;4.80;3.13;;;15.30;99.90;;;;;;5022756;28;20822;-74
2021/08/21 03:46:22;;;;;;;4.70;3.40;;;15.30;99.90;;;;;;5023478;28;20565;-74
2021/08/21 03:49:07;;;;;;;5.30;2.80;;;15.30;99.90;;;;;;5025077;28;20932;-74
2021/08/21 03:51:53;;;;;;;3.17;2.87;;;15.30;99.90;;;;;;5023383;28;21287;-74
2021/08/21 03:54:39;;;;;;;3.73;3.20;;;15.20;99.90;;;;;;5019669;28;20427;-74
2021/08/21 03:57:27;;;;;;;3.80;2.80;;;15.20;99.90;;;;;;5031040;28;20495;-74
2021/08/21 04:00:13;;;;;;;8.77;3.30;;;15.20;99.90;;;;;;5026134;28;21196;-72
2021/08/21 04:02:58;;;;;;;4.15;3.10;;;15.30;99.90;;;;;;5021550;28;20414;-72
2021/08/21 04:05:44;;;;;;;8.25;3.63;;;15.20;99.90;;;;;;5025174;28;20945;-72
2021/08/21 04:08:30;;;;;;;9.13;3.70;;;15.20;99.90;;;;;;5030320;28;20242;-72
2021/08/21 04:11:16;;;;;;;3.83;2.80;;;15.30;99.90;;;;;;5031968;28;20952;-72
2021/08/21 04:14:03;;;;;;;3.83;2.90;;;15.30;99.90;;;;;;5015606;28;20514;-72
2021/08/21 04:16:48;;;;;;;9.53;3.43;;;15.40;99.90;;;;;;5029678;28;20443;-73
2021/08/21 04:19:34;;;;;;;4.33;2.83;;;15.30;99.90;;;;;;5019455;28;20461;-72
2021/08/21 04:22:20;;;;;;;10.17;3.30;;;15.40;99.90;;;;;;5023000;28;20464;-72
2021/08/21 04:25:06;;;;;;;7.43;3.37;;;15.30;99.90;;;;;;5023683;28;20392;-72
2021/08/21 04:27:53;;;;;;;4.67;2.93;;;15.40;99.90;;;;;;5021219;28;20505;-72
2021/08/21 04:30:40;;;;;;;5.43;3.10;;;15.40;99.90;;;;;;5031145;28;20395;-72
2021/08/21 04:33:26;;;;;;;5.20;3.77;;;15.50;99.90;;;;;;5021356;28;20656;-72
2021/08/21 04:36:12;;;;;;;4.07;3.30;;;15.50;99.90;;;;;;5021095;28;20471;-71
2021/08/21 04:38:58;;;;;;;3.70;3.00;;;15.50;99.90;;;;;;5020872;28;20469;-72
2021/08/21 04:41:44;;;;;;;4.10;3.20;;;15.60;99.90;;;;;;5024861;28;20437;-72
2021/08/21 04:44:29;;;;;;;3.90;3.13;;;15.60;99.90;;;;;;5021096;28;20548;-72
2021/08/21 04:47:17;;;;;;;5.33;2.90;;;15.60;99.90;;;;;;5024450;28;20467;-72
2021/08/21 04:50:03;;;;;;;3.95;3.20;;;15.60;99.90;;;;;;5017675;28;21265;-72
2021/08/21 04:52:49;;;;;;;4.00;3.13;;;15.60;99.90;;;;;;5021861;28;20286;-72
2021/08/21 04:55:34;;;;;;;4.17;3.27;;;15.60;99.90;;;;;;5026294;28;20538;-72
2021/08/21 04:58:20;;;;;;;4.50;3.20;;;15.60;99.90;;;;;;5025582;28;20467;-72
2021/08/21 05:01:06;;;;;;;6.70;3.60;;;15.70;99.90;;;;;;5021482;28;20814;-72
2021/08/21 05:03:53;;;;;;;5.17;3.20;;;15.80;99.90;;;;;;5029437;28;20400;-72
2021/08/21 05:06:39;;;;;;;4.73;2.80;;;15.80;99.90;;;;;;5018702;28;20420;-72
2021/08/21 05:09:24;;;;;;;6.10;3.40;;;15.80;99.90;;;;;;5028951;28;20951;-72
2021/08/21 05:12:10;;;;;;;5.60;3.07;;;15.90;99.90;;;;;;5030676;28;20843;-72
2021/08/21 05:14:56;;;;;;;8.00;3.20;;;15.90;99.90;;;;;;5025992;28;20510;-72
2021/08/21 05:17:42;;;;;;;5.70;3.33;;;15.90;99.90;;;;;;5028432;28;20443;-72
2021/08/21 05:20:30;;;;;;;8.60;3.40;;;16.00;99.90;;;;;;5026459;28;20962;-72
2021/08/21 05:23:16;;;;;;;5.40;3.57;;;16.00;99.90;;;;;;5012957;28;20495;-72
2021/08/21 05:26:02;;;;;;;3.80;3.23;;;16.10;99.90;;;;;;5022526;28;20805;-72
2021/08/21 05:28:48;;;;;;;6.57;3.77;;;16.10;99.90;;;;;;5021390;28;20686;-72
2021/08/21 05:31:34;;;;;;;5.40;3.60;;;16.10;99.90;;;;;;5026985;28;20539;-72
2021/08/21 05:34:20;;;;;;;10.47;4.03;;;16.20;99.90;;;;;;5026652;28;20205;-72
2021/08/21 05:37:07;;;;;;;4.90;3.60;;;16.20;99.90;;;;;;5023183;28;20407;-72
2021/08/21 05:39:52;;;;;;;5.70;3.53;;;16.20;99.90;;;;;;5032749;28;20458;-72
2021/08/21 05:42:38;;;;;;;7.47;3.77;;;16.30;99.90;;;;;;5032741;28;20493;-72
2021/08/21 05:45:24;;;;;;;4.83;3.93;;;16.30;99.90;;;;;;5032947;28;20972;-72
2021/08/21 05:48:09;;;;;;;7.80;3.80;;;16.40;99.90;;;;;;5029274;28;20600;-72
2021/08/21 05:50:55;;;;;;;4.90;3.70;;;16.40;99.90;;;;;;5032009;28;20535;-72
2021/08/21 05:53:42;;;;;;;8.50;3.83;;;16.50;99.90;;;;;;5031668;28;20502;-72
2021/08/21 05:56:28;;;;;;;5.30;3.10;;;16.60;99.90;;;;;;5029556;28;20479;-72
2021/08/21 05:59:13;;;;;;;5.40;3.33;;;16.70;99.90;;;;;;5027209;28;20458;-72
2021/08/21 06:01:58;;;;;;;6.40;3.80;;;16.80;99.90;;;;;;5032429;28;20445;-72
2021/08/21 06:04:44;;;;;;;6.47;3.17;;;16.80;99.90;;;;;;5028579;28;20482;-72
2021/08/21 06:07:30;;;;;;;4.90;3.30;;;16.90;99.90;;;;;;5033581;28;20440;-72
2021/08/21 06:10:17;;;;;;;6.00;3.20;;;17.00;99.90;;;;;;5037591;28;20416;-72
2021/08/21 06:13:03;;;;;;;5.20;3.37;;;17.10;99.90;;;;;;5033342;28;20391;-72
2021/08/21 06:15:48;;;;;;;5.00;3.57;;;17.20;99.90;;;;;;5028540;28;20456;-72
2021/08/21 06:18:34;;;;;;;7.30;3.67;;;17.20;99.90;;;;;;5017239;28;20480;-72
2021/08/21 06:21:19;;;;;;;5.33;3.53;;;17.30;99.90;;;;;;5031053;28;20526;-72
2021/08/21 06:24:05;;;;;;;5.23;3.63;;;17.40;99.90;;;;;;5026230;28;20392;-72
2021/08/21 06:26:52;;;;;;;8.70;3.63;;;17.50;99.90;;;;;;5029160;28;20430;-72
2021/08/21 06:29:38;;;;;;;4.37;3.50;;;17.50;99.90;;;;;;5030581;28;20407;-72
2021/08/21 06:32:24;;;;;;;4.20;3.10;;;17.60;99.90;;;;;;5025408;28;20521;-72
2021/08/21 06:35:11;;;;;;;5.83;3.90;;;17.60;99.90;;;;;;5030352;28;21013;-72
2021/08/21 06:37:56;;;;;;;5.70;3.30;;;17.60;99.90;;;;;;5027060;28;20839;-72
2021/08/21 06:40:42;;;;;;;3.97;3.27;;;17.60;99.90;;;;;;5032723;28;20420;-72
2021/08/21 06:43:29;;;;;;;6.47;3.10;;;17.70;99.90;;;;;;5032993;28;20435;-72
2021/08/21 06:46:15;;;;;;;5.45;3.40;;;17.60;99.90;;;;;;5025595;28;20559;-72
2021/08/21 06:49:01;;;;;;;4.97;3.43;;;17.80;99.90;;;;;;5022647;28;20605;-72
2021/08/21 06:51:46;;;;;;;3.60;2.90;;;17.90;99.90;;;;;;5028933;28;20497;-73
2021/08/21 06:54:32;;;;;;;8.63;3.97;;;17.90;99.90;;;;;;5032356;28;20800;-72
2021/08/21 06:57:18;;;;;;;5.33;3.27;;;18.10;99.90;;;;;;5017646;28;20458;-73
2021/08/21 07:00:05;;;;;;;11.40;3.83;;;18.20;99.90;;;;;;5013254;28;20798;-73
2021/08/21 07:02:51;;;;;;;4.37;3.60;;;18.30;99.90;;;;;;5025057;28;20461;-73
2021/08/21 07:05:37;;;;;;;4.90;3.03;;;18.40;99.90;;;;;;5032375;28;20411;-72
2021/08/21 07:08:22;;;;;;;5.53;3.50;;;18.50;99.90;;;;;;5032400;28;20886;-72
2021/08/21 07:11:08;;;;;;;5.40;3.03;;;18.70;99.90;;;;;;5036658;28;20433;-72
2021/08/21 07:13:54;;;;;;;5.53;3.30;;;18.80;99.90;;;;;;5032218;28;20481;-72
2021/08/21 07:16:41;;;;;;;5.43;3.70;;;18.90;99.90;;;;;;5028944;28;20572;-72
2021/08/21 07:19:27;;;;;;;3.80;2.70;;;19.00;99.90;;;;;;5022295;28;21066;-72
2021/08/21 07:22:12;;;;;;;7.50;3.10;;;19.00;99.90;;;;;;5026065;28;20421;-73
2021/08/21 07:24:58;;;;;;;5.83;3.67;;;19.00;99.90;;;;;;5029811;28;20451;-71
2021/08/21 07:27:43;;;;;;;7.20;3.55;;;19.00;99.90;;;;;;5014766;28;20449;-72
2021/08/21 07:30:29;;;;;;;9.80;3.87;;;19.00;99.90;;;;;;5021686;28;20243;-71
2021/08/21 07:33:16;;;;;;;5.90;3.67;;;19.00;99.90;;;;;;5022721;28;20518;-71
2021/08/21 07:36:02;;;;;;;5.30;3.73;;;19.10;99.90;;;;;;5019348;28;20834;-71
2021/08/21 07:38:47;;;;;;;6.17;4.17;;;19.30;99.90;;;;;;5028514;28;20520;-71
2021/08/21 07:41:35;;;;;;;4.30;3.27;;;19.50;99.90;;;;;;5022226;28;20546;-71
2021/08/21 07:44:21;;;;;;;6.50;3.43;;;19.60;99.90;;;;;;5026354;28;20436;-71
2021/08/21 07:47:07;;;;;;;5.10;3.53;;;19.70;99.90;;;;;;5023444;28;20463;-71
2021/08/21 07:49:54;;;;;;;8.63;3.70;;;19.80;99.90;;;;;;5020647;28;20575;-71
2021/08/21 07:52:43;;;;;;;4.60;3.93;;;19.90;99.90;;;;;;5022799;28;20422;-71
2021/08/21 07:55:29;;;;;;;6.20;3.80;;;20.00;99.90;;;;;;5029781;28;20446;-71
2021/08/21 07:58:14;;;;;;;5.65;3.58;;;20.20;99.90;;;;;;5030497;28;20991;-70
2021/08/21 08:01:00;;;;;;;4.60;3.73;;;20.40;99.90;;;;;;5024302;28;20581;-73
2021/08/21 08:03:46;;;;;;;6.82;3.28;;;20.50;99.90;;;;;;5026821;28;20985;-70
2021/08/21 08:06:33;;;;;;;4.10;3.57;;;20.70;99.90;;;;;;5027242;28;20207;-69
2021/08/21 08:09:18;;;;;;;6.00;3.20;;;20.80;99.90;;;;;;5029958;28;20427;-70
2021/08/21 08:12:05;;;;;;;5.53;2.77;;;20.90;99.90;;;;;;5022779;28;20461;-70
2021/08/21 08:14:51;;;;;;;5.93;3.83;;;21.10;99.90;;;;;;5023760;28;20456;-68
2021/08/21 08:17:36;;;;;;;3.90;3.30;;;21.10;99.90;;;;;;5021228;28;20617;-68
2021/08/21 08:20:22;;;;;;;4.57;3.40;;;21.30;99.90;;;;;;5018212;28;20436;-68
2021/08/21 08:23:11;;;;;;;6.33;3.53;;;21.40;99.90;;;;;;5026761;28;20522;-68
2021/08/21 08:25:57;;;;;;;4.37;3.03;;;21.40;99.90;;;;;;5022984;28;20451;-68
2021/08/21 08:28:42;;;;;;;3.90;3.13;;;21.50;99.90;;;;;;5022174;28;20482;-69
2021/08/21 08:31:28;;;;;;;3.13;2.73;;;21.60;99.90;;;;;;5024238;28;20939;-69
2021/08/21 08:34:13;;;;;;;3.60;2.70;;;21.70;99.90;;;;;;5022216;28;20418;-69
2021/08/21 08:36:59;;;;;;;4.40;3.90;;;21.80;99.90;;;;;;5025185;28;20439;-69
2021/08/21 08:39:46;;;;;;;10.37;4.10;;;21.80;99.90;;;;;;5023385;28;20679;-69
2021/08/21 08:42:32;;;;;;;5.93;3.10;;;22.00;99.90;;;;;;5024914;28;20968;-69
2021/08/21 08:45:18;;;;;;;6.27;3.30;;;22.10;99.90;;;;;;5019197;28;20542;-69
2021/08/21 08:48:06;;;;;;;7.63;2.60;;;22.10;99.90;;;;;;5015410;28;20838;-69
2021/08/21 08:50:53;;;;;;;4.80;3.63;;;22.30;99.90;;;;;;5027324;28;20463;-69
2021/08/21 08:53:39;;;;;;;4.67;3.17;;;22.40;99.90;;;;;;5020874;28;20551;-69
2021/08/21 08:56:26;;;;;;;3.13;2.50;;;22.50;99.90;;;;;;5029464;28;20397;-69
2021/08/21 08:59:11;;;;;;;4.50;2.97;;;22.70;99.90;;;;;;5021867;28;20475;-69
2021/08/21 09:01:56;;;;;;;4.80;3.22;;;22.70;99.90;;;;;;5030122;28;20443;-69
2021/08/21 09:04:42;;;;;;;5.90;3.43;;;22.80;99.90;;;;;;5019813;28;20216;-69
2021/08/21 09:07:39;;;;;;;7.50;3.00;;;22.90;99.90;;;;;;5019651;28;20751;-69
2021/08/21 09:10:26;;;;;;;3.90;2.77;;;23.00;99.90;;;;;;5026596;28;20480;-69
2021/08/21 09:13:15;;;;;;;3.87;3.20;;;23.00;99.90;;;;;;5021459;28;20454;-69
2021/08/21 09:16:02;;;;;;;4.50;2.97;;;23.10;99.90;;;;;;5026744;28;20447;-69
2021/08/21 09:19:03;;;;;;;4.13;3.10;;;23.20;99.90;;;;;;5029336;28;20461;-69
2021/08/21 09:22:00;;;;;;;4.77;3.40;;;23.20;99.90;;;;;;5028717;28;20489;-69
2021/08/21 09:24:45;;;;;;;3.83;2.87;;;23.30;99.90;;;;;;5026189;28;20557;-69
2021/08/21 09:27:31;;;;;;;4.60;3.30;;;23.40;99.90;;;;;;5028771;28;20457;-69
2021/08/21 09:30:18;;;;;;;5.00;3.00;;;23.50;99.90;;;;;;5029785;28;20452;-69
2021/08/21 09:33:04;;;;;;;4.00;3.07;;;23.50;99.90;;;;;;5022576;28;20201;-69
2021/08/21 09:35:49;;;;;;;7.10;3.40;;;23.60;99.90;;;;;;5026080;28;20814;-69
2021/08/21 09:38:35;;;;;;;6.20;3.90;;;23.70;99.90;;;;;;5021575;28;20529;-69
2021/08/21 09:41:22;;;;;;;8.43;3.33;;;23.80;99.90;;;;;;5031947;28;20969;-69
2021/08/21 09:44:10;;;;;;;4.00;3.43;;;24.00;99.90;;;;;;5028130;28;20432;-69
2021/08/21 09:47:23;;;;;;;7.23;3.13;;;24.10;99.90;;;;;;5027802;28;20453;-69
2021/08/21 09:50:14;;;;;;;5.53;3.67;;;24.10;99.90;;;;;;5023713;28;20455;-69
2021/08/21 09:53:03;;;;;;;3.73;3.30;;;24.20;98.50;;;;;;5031479;28;20529;-69
2021/08/21 09:55:49;;;;;;;12.93;3.33;;;24.10;97.00;;;;;;5025568;28;20482;-69
2021/08/21 09:58:35;;;;;;;8.52;3.53;;;24.20;93.80;;;;;;5031223;28;20441;-69
2021/08/21 10:01:21;;;;;;;7.22;3.60;;;24.30;95.10;;;;;;5027784;28;20526;-69
2021/08/21 10:04:08;;;;;;;5.17;3.17;;;24.40;94.20;;;;;;5028367;28;20793;-69
2021/08/21 10:06:54;;;;;;;6.40;2.97;;;24.50;92.20;;;;;;5028474;28;20450;-69
2021/08/21 10:09:40;;;;;;;6.07;3.60;;;24.60;93.00;;;;;;5031439;28;20964;-69
2021/08/21 10:12:25;;;;;;;6.70;3.10;;;24.70;93.60;;;;;;5027527;28;20449;-69
2021/08/21 10:15:13;;;;;;;5.60;3.73;;;24.70;87.80;;;;;;5023393;28;20946;-69
2021/08/21 10:17:58;;;;;;;8.50;3.30;;;24.70;86.80;;;;;;5025036;28;20471;-69
2021/08/21 10:20:45;;;;;;;3.73;3.23;;;24.70;85.20;;;;;;5026860;28;20523;-69
2021/08/21 10:23:32;;;;;;;3.80;3.10;;;24.70;83.80;;;;;;5024700;28;20984;-69
2021/08/21 10:26:24;;;;;;;5.80;3.30;;;24.70;81.10;;;;;;5028293;28;20510;-69
2021/08/21 10:29:11;;;;;;;5.27;3.77;;;24.80;84.70;;;;;;5023413;28;20615;-69
2021/08/21 10:31:57;;;;;;;6.07;3.90;;;25.00;90.20;;;;;;5022199;28;20539;-69
2021/08/21 10:34:52;;;;;;;4.00;3.30;;;25.10;78.70;;;;;;5017475;28;20930;-69
2021/08/21 10:37:42;;;;;;;4.43;3.10;;;25.00;77.10;;;;;;5026019;28;20469;-69
2021/08/21 10:40:39;;;;;;;4.70;3.53;;;25.10;84.70;;;;;;5033650;28;20477;-69
2021/08/21 10:43:43;;;;;;;7.10;3.60;;;25.30;85.30;;;;;;5029254;28;20592;-69
2021/08/21 10:46:52;;;;;;;3.57;2.80;;;25.40;82.50;;;;;;5025308;28;20437;-69
2021/08/21 10:49:47;;;;;;;5.07;3.75;;;25.50;85.20;;;;;;5021935;28;20596;-70
2021/08/21 10:52:51;;;;;;;5.43;3.33;;;25.60;83.70;;;;;;5032031;28;20200;-71
2021/08/21 10:55:42;;;;;;;9.77;4.33;;;25.70;77.10;;;;;;5021348;28;20810;-71
2021/08/21 10:58:29;;;;;;;4.90;3.70;;;25.80;69.50;;;;;;5027535;28;20855;-70
2021/08/21 11:01:23;;;;;;;3.70;3.20;;;25.70;72.90;;;;;;5027981;28;21001;-70
2021/08/21 11:04:09;;;;;;;4.53;3.33;;;25.80;74.70;;;;;;5032371;28;20472;-70
2021/08/21 11:06:54;;;;;;;7.60;3.40;;;25.90;76.00;;;;;;5032188;28;20476;-71
2021/08/21 11:09:41;;;;;;;4.93;3.57;;;25.90;74.50;;;;;;5036750;28;20804;-71
2021/08/21 11:12:37;;;;;;;9.90;3.30;;;25.90;76.10;;;;;;5032122;28;20478;-70
2021/08/21 11:15:24;;;;;;;5.50;3.23;;;26.10;81.20;;;;;;5029875;28;20474;-71
2021/08/21 11:18:21;;;;;;;5.67;3.60;;;26.10;76.10;;;;;;5032157;28;20453;-71
2021/08/21 11:21:31;;;;;;;3.90;3.30;;;26.30;76.40;;;;;;5032283;28;20421;-71
2021/08/21 11:24:24;;;;;;;5.10;3.30;;;26.30;75.10;;;;;;5031957;28;20420;-71
2021/08/21 11:27:37;;;;;;;4.63;3.20;;;26.50;69.90;;;;;;5032108;28;21178;-71
2021/08/21 11:30:25;;;;;;;5.43;3.20;;;26.40;66.80;;;;;;5029789;28;20451;-71
2021/08/21 11:33:15;;;;;;;4.70;3.80;;;26.50;68.80;;;;;;5032007;28;20426;-71
2021/08/21 11:36:02;;;;;;;6.13;3.90;;;26.60;77.50;;;;;;5030560;28;20841;-71
2021/08/21 11:38:47;;;;;;;9.83;3.77;;;26.70;77.30;;;;;;5030385;28;20968;-71
2021/08/21 11:41:33;;;;;;;5.10;3.83;;;26.90;75.50;;;;;;5028457;28;20435;-71
2021/08/21 11:44:29;;;;;;;8.13;3.20;;;26.90;66.90;;;;;;5031766;28;20432;-71
2021/08/21 11:47:14;;;;;;;7.10;3.73;;;26.90;67.10;;;;;;5031742;28;20439;-70
2021/08/21 11:50:00;;;;;;;5.17;3.70;;;26.90;66.40;;;;;;5031695;28;20417;-70
2021/08/21 11:52:47;;;;;;;5.40;4.10;;;27.00;64.60;;;;;;5031669;28;20427;-71
2021/08/21 11:55:36;;;;;;;5.00;3.90;;;27.00;64.10;;;;;;5030941;28;20535;-70
2021/08/21 11:58:30;;;;;;;5.13;4.03;;;27.10;68.30;;;;;;5030429;28;20428;-71
2021/08/21 12:01:18;;;;;;;5.43;3.63;;;27.30;64.70;;;;;;5029861;28;20426;-72
2021/08/21 12:04:22;;;;;;;4.80;4.30;;;27.10;60.70;;;;;;5023427;28;20445;-70
2021/08/21 12:07:08;;;;;;;4.57;3.70;;;27.10;61.30;;;;;;5021205;28;20805;-70
2021/08/21 12:09:58;;;;;;;6.43;3.80;;;27.20;62.70;;;;;;5026519;28;20463;-70
2021/08/21 12:12:44;;;;;;;4.60;3.57;;;27.10;60.20;;;;;;5025454;28;20441;-71
2021/08/21 12:15:30;;;;;;;9.03;4.27;;;27.20;61.50;;;;;;5023674;28;20477;-71
2021/08/21 12:18:20;;;;;;;5.70;4.00;;;27.20;62.00;;;;;;5023503;28;20420;-70
2021/08/21 12:21:08;;;;;;;5.17;3.53;;;27.40;60.40;;;;;;5019341;28;20591;-70
2021/08/21 12:23:55;;;;;;;4.20;3.33;;;27.40;58.10;;;;;;5028105;28;20570;-71
2021/08/21 12:26:44;;;;;;;9.33;4.10;;;27.60;57.80;;;;;;5025972;28;21087;-70
2021/08/21 12:29:32;;;;;;;6.40;4.40;;;27.70;58.90;;;;;;5022734;28;20441;-71
2021/08/21 12:32:27;;;;;;;4.13;3.20;;;27.80;59.40;;;;;;5030729;28;20611;-70
2021/08/21 12:35:17;;;;;;;4.97;3.73;;;27.90;60.70;;;;;;5017052;28;20452;-70
2021/08/21 12:38:04;;;;;;;4.97;3.87;;;28.00;61.80;;;;;;5030695;28;20874;-69
2021/08/21 12:41:07;;;;;;;5.67;4.00;;;28.10;61.80;;;;;;5034715;28;20455;-69
2021/08/21 12:44:04;;;;;;;4.40;3.50;;;28.20;58.10;;;;;;5030877;28;20503;-70
2021/08/21 12:46:52;;;;;;;6.67;3.50;;;28.00;56.70;;;;;;5024882;28;20461;-69
2021/08/21 12:49:39;;;;;;;4.87;3.63;;;28.00;59.60;;;;;;5029328;28;20589;-69
2021/08/21 12:52:29;;;;;;;4.60;3.17;;;28.10;55.10;;;;;;5027221;28;20580;-69
2021/08/21 12:55:19;;;;;;;6.30;3.17;;;28.40;54.90;;;;;;5032657;28;20452;-70
2021/08/21 12:58:09;;;;;;;7.05;3.88;;;28.60;56.60;;;;;;5022376;28;20441;-69
2021/08/21 13:01:06;;;;;;;5.47;3.77;;;28.80;52.60;;;;;;5033015;28;20433;-69
2021/08/21 13:04:05;;;;;;;4.37;3.40;;;28.90;53.00;;;;;;5031036;28;20459;-69
2021/08/21 13:07:00;;;;;;;8.57;5.00;;;29.00;52.10;;;;;;5025706;28;20444;-69
2021/08/21 13:09:47;;;;;;;4.20;3.10;;;28.90;51.00;;;;;;5026436;28;20427;-69
2021/08/21 13:12:33;;;;;;;5.50;4.07;;;29.10;50.70;;;;;;5033448;28;20483;-70
2021/08/21 13:15:20;;;;;;;5.60;3.77;;;29.50;50.50;;;;;;5026910;28;20469;-69
2021/08/21 13:18:07;;;;;;;6.90;4.30;;;29.60;50.30;;;;;;5020833;28;20966;-69
2021/08/21 13:20:52;;;;;;;5.50;3.50;;;29.50;53.20;;;;;;5023159;28;20603;-69
2021/08/21 13:23:38;;;;;;;4.80;3.73;;;29.30;52.50;;;;;;5029344;28;20524;-69
2021/08/21 13:26:25;;;;;;;4.90;3.43;;;29.50;50.60;;;;;;5027748;28;20979;-69
2021/08/21 13:29:11;;;;;;;6.60;4.20;;;29.70;51.70;;;;;;5027775;28;20477;-69
2021/08/21 13:31:56;;;;;;;9.77;3.53;;;29.90;50.70;;;;;;5028891;28;20456;-69
2021/08/21 13:34:42;;;;;;;5.70;3.90;;;29.90;48.90;;;;;;5021609;28;20436;-70
2021/08/21 13:37:27;;;;;;;4.60;3.77;;;29.70;49.00;;;;;;5033154;28;20669;-70
2021/08/21 13:40:14;;;;;;;8.87;3.67;;;29.80;51.80;;;;;;5032882;28;20476;-70
2021/08/21 13:43:01;;;;;;;5.50;4.00;;;29.90;49.20;;;;;;5032874;28;20450;-69
2021/08/21 13:45:47;;;;;;;6.60;4.73;;;30.10;49.10;;;;;;5033700;28;20828;-69
2021/08/21 13:48:34;;;;;;;5.17;3.47;;;30.20;49.10;;;;;;5024191;28;20559;-69
2021/08/21 13:51:19;;;;;;;7.17;4.27;;;30.20;48.30;;;;;;5020696;28;20430;-69
2021/08/21 13:54:05;;;;;;;6.00;3.90;;;30.30;49.20;;;;;;5023646;28;20599;-69
2021/08/21 13:56:50;;;;;;;5.10;3.87;;;30.40;49.50;;;;;;5024092;28;20217;-69
2021/08/21 13:59:38;;;;;;;5.77;3.70;;;30.40;49.30;;;;;;5024055;28;20452;-73
2021/08/21 14:02:24;;;;;;;6.40;3.77;;;30.50;48.80;;;;;;5028054;28;20436;-74
2021/08/21 14:05:11;;;;;;;6.37;3.37;;;30.60;47.20;;;;;;5023175;28;20457;-74
2021/08/21 14:07:56;;;;;;;5.40;3.87;;;30.20;42.00;;;;;;5023139;28;20571;-74
2021/08/21 14:10:42;;;;;;;5.90;4.67;;;29.70;42.70;;;;;;5030742;28;20468;-74
2021/08/21 14:13:28;;;;;;;7.95;4.40;;;29.60;44.70;;;;;;5031445;28;20468;-75
2021/08/21 14:16:15;;;;;;;7.03;3.50;;;29.20;44.00;;;;;;5026735;28;20738;-74
2021/08/21 14:19:00;;;;;;;11.07;4.60;;;29.00;44.50;;;;;;5022050;28;20503;-74
2021/08/21 14:21:46;;;;;;;5.73;3.93;;;29.00;46.50;;;;;;5021711;28;20521;-74
2021/08/21 14:24:33;;;;;;;7.67;4.77;;;29.10;48.20;;;;;;5026885;28;20463;-74
2021/08/21 14:27:18;;;;;;;4.73;3.40;;;29.40;48.50;;;;;;5028337;28;20954;-73
2021/08/21 14:30:05;;;;;;;5.07;3.90;;;29.20;45.70;;;;;;5022841;28;20446;-73